Farafra, Egypt
Current Conditions -  °F | °C
As of 9:00 PM on Wednesday 17 Dec 2014 (Local Time) from HESG Reporting Station
Clear Clear  
Wind Chill: 16°   Ceiling: Unl
Heat Index: 16°   Visibility: 6mi
Dew Point:   Wind: 3mph
Humidity: 59%   Direction: 270°W
Pressure: 30.09"   Gusts: NA
Location:  27.05°N, 27.47°E
Report Text: HESG 171900Z 27003KT CAVOK 16/08 Q1019 NOSIG
Loading
Personal Weather Stations






























Interactive Weather Map New forecast layout! Learn more

10-Day Weather Forecast

Advertisements
Track Severe Weather on mobile